sensor_id;sensor_type;location;lat;lon;timestamp;P1;durP1;ratioP1;P2;durP2;ratioP2
42864;SDS011;28511;42.680;23.252;2023-08-06T00:01:10;1.23;;;1.13;;
42864;SDS011;28511;42.680;23.252;2023-08-06T00:03:35;1.43;;;0.83;;
42864;SDS011;28511;42.680;23.252;2023-08-06T00:06:01;0.80;;;0.57;;
42864;SDS011;28511;42.680;23.252;2023-08-06T00:08:26;1.27;;;0.83;;
42864;SDS011;28511;42.680;23.252;2023-08-06T00:10:51;1.77;;;1.43;;
42864;SDS011;28511;42.680;23.252;2023-08-06T00:13:16;1.23;;;1.13;;
42864;SDS011;28511;42.680;23.252;2023-08-06T00:15:42;1.20;;;0.57;;
42864;SDS011;28511;42.680;23.252;2023-08-06T00:18:07;0.73;;;0.68;;
42864;SDS011;28511;42.680;23.252;2023-08-06T00:20:32;1.43;;;0.77;;
42864;SDS011;28511;42.680;23.252;2023-08-06T00:22:57;1.60;;;0.87;;
42864;SDS011;28511;42.680;23.252;2023-08-06T00:25:22;1.83;;;1.03;;
42864;SDS011;28511;42.680;23.252;2023-08-06T00:27:48;0.87;;;0.70;;
42864;SDS011;28511;42.680;23.252;2023-08-06T00:30:13;2.23;;;0.80;;
42864;SDS011;28511;42.680;23.252;2023-08-06T00:32:38;0.93;;;0.93;;
42864;SDS011;28511;42.680;23.252;2023-08-06T00:35:03;0.53;;;0.53;;
42864;SDS011;28511;42.680;23.252;2023-08-06T00:37:29;2.63;;;1.60;;
42864;SDS011;28511;42.680;23.252;2023-08-06T00:39:55;1.00;;;0.60;;
42864;SDS011;28511;42.680;23.252;2023-08-06T00:42:20;1.10;;;1.00;;
42864;SDS011;28511;42.680;23.252;2023-08-06T00:44:46;2.72;;;1.75;;
42864;SDS011;28511;42.680;23.252;2023-08-06T00:47:11;1.25;;;0.80;;
42864;SDS011;28511;42.680;23.252;2023-08-06T00:49:37;0.93;;;0.83;;
42864;SDS011;28511;42.680;23.252;2023-08-06T00:52:02;1.43;;;1.17;;
42864;SDS011;28511;42.680;23.252;2023-08-06T00:54:28;1.48;;;0.75;;
42864;SDS011;28511;42.680;23.252;2023-08-06T00:56:54;1.17;;;0.57;;
42864;SDS011;28511;42.680;23.252;2023-08-06T00:59:19;2.77;;;1.03;;
42864;SDS011;28511;42.680;23.252;2023-08-06T01:01:45;1.13;;;0.90;;
42864;SDS011;28511;42.680;23.252;2023-08-06T01:04:10;1.60;;;1.17;;
42864;SDS011;28511;42.680;23.252;2023-08-06T01:06:39;1.65;;;1.55;;
42864;SDS011;28511;42.680;23.252;2023-08-06T01:09:12;3.33;;;1.55;;
42864;SDS011;28511;42.680;23.252;2023-08-06T01:14:13;3.13;;;1.25;;
42864;SDS011;28511;42.680;23.252;2023-08-06T01:16:41;2.10;;;1.20;;
42864;SDS011;28511;42.680;23.252;2023-08-06T01:19:15;2.05;;;1.25;;
42864;SDS011;28511;42.680;23.252;2023-08-06T01:21:41;0.75;;;0.75;;
42864;SDS011;28511;42.680;23.252;2023-08-06T01:24:06;1.30;;;1.20;;
42864;SDS011;28511;42.680;23.252;2023-08-06T01:26:39;1.08;;;0.90;;
42864;SDS011;28511;42.680;23.252;2023-08-06T01:31:41;2.20;;;1.60;;
42864;SDS011;28511;42.680;23.252;2023-08-06T01:34:09;1.08;;;0.98;;
42864;SDS011;28511;42.680;23.252;2023-08-06T01:36:35;1.35;;;1.25;;
42864;SDS011;28511;42.680;23.252;2023-08-06T01:39:01;1.48;;;1.33;;
42864;SDS011;28511;42.680;23.252;2023-08-06T01:41:26;0.60;;;0.60;;
42864;SDS011;28511;42.680;23.252;2023-08-06T01:43:51;2.47;;;1.17;;
42864;SDS011;28511;42.680;23.252;2023-08-06T01:46:17;1.83;;;1.17;;
42864;SDS011;28511;42.680;23.252;2023-08-06T01:48:42;5.45;;;2.30;;
42864;SDS011;28511;42.680;23.252;2023-08-06T01:51:08;3.25;;;2.30;;
42864;SDS011;28511;42.680;23.252;2023-08-06T01:53:33;2.10;;;1.53;;
42864;SDS011;28511;42.680;23.252;2023-08-06T01:55:58;2.05;;;1.30;;
42864;SDS011;28511;42.680;23.252;2023-08-06T01:58:24;6.18;;;1.98;;
42864;SDS011;28511;42.680;23.252;2023-08-06T02:00:49;0.60;;;0.60;;
42864;SDS011;28511;42.680;23.252;2023-08-06T02:03:14;0.80;;;0.80;;
42864;SDS011;28511;42.680;23.252;2023-08-06T02:05:40;1.57;;;1.20;;
42864;SDS011;28511;42.680;23.252;2023-08-06T02:08:05;1.35;;;0.68;;
42864;SDS011;28511;42.680;23.252;2023-08-06T02:10:30;1.58;;;1.48;;
42864;SDS011;28511;42.680;23.252;2023-08-06T02:12:56;1.17;;;0.97;;
42864;SDS011;28511;42.680;23.252;2023-08-06T02:15:21;4.27;;;1.63;;
42864;SDS011;28511;42.680;23.252;2023-08-06T02:17:46;2.27;;;1.17;;
42864;SDS011;28511;42.680;23.252;2023-08-06T02:20:11;1.13;;;0.77;;
42864;SDS011;28511;42.680;23.252;2023-08-06T02:22:36;1.97;;;1.67;;
42864;SDS011;28511;42.680;23.252;2023-08-06T02:25:02;2.10;;;1.43;;
42864;SDS011;28511;42.680;23.252;2023-08-06T02:27:27;2.08;;;1.00;;
42864;SDS011;28511;42.680;23.252;2023-08-06T02:29:52;3.20;;;1.57;;
42864;SDS011;28511;42.680;23.252;2023-08-06T02:32:17;0.83;;;0.83;;
42864;SDS011;28511;42.680;23.252;2023-08-06T02:34:43;0.77;;;0.77;;
42864;SDS011;28511;42.680;23.252;2023-08-06T02:37:08;0.90;;;0.63;;
42864;SDS011;28511;42.680;23.252;2023-08-06T02:39:33;1.33;;;0.97;;
42864;SDS011;28511;42.680;23.252;2023-08-06T02:41:59;1.65;;;1.15;;
42864;SDS011;28511;42.680;23.252;2023-08-06T02:44:27;4.43;;;1.73;;
42864;SDS011;28511;42.680;23.252;2023-08-06T02:46:52;1.98;;;1.65;;
42864;SDS011;28511;42.680;23.252;2023-08-06T02:49:17;2.00;;;1.23;;
42864;SDS011;28511;42.680;23.252;2023-08-06T02:51:44;1.33;;;1.00;;
42864;SDS011;28511;42.680;23.252;2023-08-06T02:54:09;2.05;;;1.30;;
42864;SDS011;28511;42.680;23.252;2023-08-06T02:56:35;2.50;;;1.07;;
42864;SDS011;28511;42.680;23.252;2023-08-06T02:59:00;0.35;;;0.35;;
42864;SDS011;28511;42.680;23.252;2023-08-06T03:01:25;1.02;;;0.85;;
42864;SDS011;28511;42.680;23.252;2023-08-06T03:03:51;1.15;;;1.05;;
42864;SDS011;28511;42.680;23.252;2023-08-06T03:06:17;1.40;;;1.15;;
42864;SDS011;28511;42.680;23.252;2023-08-06T03:08:42;2.23;;;1.40;;
42864;SDS011;28511;42.680;23.252;2023-08-06T03:11:07;1.83;;;1.10;;
42864;SDS011;28511;42.680;23.252;2023-08-06T03:13:32;1.00;;;1.00;;
42864;SDS011;28511;42.680;23.252;2023-08-06T03:15:59;1.37;;;1.00;;
42864;SDS011;28511;42.680;23.252;2023-08-06T03:18:24;1.23;;;1.13;;
42864;SDS011;28511;42.680;23.252;2023-08-06T03:20:51;1.88;;;1.42;;
42864;SDS011;28511;42.680;23.252;2023-08-06T03:23:16;1.92;;;1.67;;
42864;SDS011;28511;42.680;23.252;2023-08-06T03:25:41;1.20;;;1.00;;
42864;SDS011;28511;42.680;23.252;2023-08-06T03:28:07;1.98;;;0.98;;
42864;SDS011;28511;42.680;23.252;2023-08-06T03:30:32;2.60;;;1.55;;
42864;SDS011;28511;42.680;23.252;2023-08-06T03:32:57;0.80;;;0.80;;
42864;SDS011;28511;42.680;23.252;2023-08-06T03:35:22;1.83;;;1.37;;
42864;SDS011;28511;42.680;23.252;2023-08-06T03:37:48;0.87;;;0.80;;
42864;SDS011;28511;42.680;23.252;2023-08-06T03:40:14;1.58;;;1.48;;
42864;SDS011;28511;42.680;23.252;2023-08-06T03:42:40;2.78;;;1.27;;
42864;SDS011;28511;42.680;23.252;2023-08-06T03:45:05;1.35;;;0.93;;
42864;SDS011;28511;42.680;23.252;2023-08-06T03:47:30;1.38;;;1.10;;
42864;SDS011;28511;42.680;23.252;2023-08-06T03:49:56;1.27;;;1.17;;
42864;SDS011;28511;42.680;23.252;2023-08-06T03:52:21;0.70;;;0.70;;
42864;SDS011;28511;42.680;23.252;2023-08-06T03:54:46;0.50;;;0.50;;
42864;SDS011;28511;42.680;23.252;2023-08-06T03:57:11;1.50;;;1.20;;
42864;SDS011;28511;42.680;23.252;2023-08-06T03:59:37;0.80;;;0.65;;
42864;SDS011;28511;42.680;23.252;2023-08-06T04:02:02;1.38;;;1.20;;
42864;SDS011;28511;42.680;23.252;2023-08-06T04:04:27;2.67;;;1.15;;
42864;SDS011;28511;42.680;23.252;2023-08-06T04:06:53;3.00;;;1.75;;
42864;SDS011;28511;42.680;23.252;2023-08-06T04:09:18;0.93;;;0.90;;
42864;SDS011;28511;42.680;23.252;2023-08-06T04:11:43;2.63;;;1.15;;
42864;SDS011;28511;42.680;23.252;2023-08-06T04:14:09;2.00;;;1.47;;
42864;SDS011;28511;42.680;23.252;2023-08-06T04:16:34;0.63;;;0.63;;
42864;SDS011;28511;42.680;23.252;2023-08-06T04:18:59;3.07;;;1.57;;
42864;SDS011;28511;42.680;23.252;2023-08-06T04:21:24;4.53;;;2.25;;
42864;SDS011;28511;42.680;23.252;2023-08-06T04:23:50;4.23;;;3.07;;
42864;SDS011;28511;42.680;23.252;2023-08-06T04:26:15;2.83;;;1.98;;
42864;SDS011;28511;42.680;23.252;2023-08-06T04:28:40;2.40;;;2.08;;
42864;SDS011;28511;42.680;23.252;2023-08-06T04:31:05;5.00;;;2.53;;
42864;SDS011;28511;42.680;23.252;2023-08-06T04:33:31;4.30;;;2.37;;
42864;SDS011;28511;42.680;23.252;2023-08-06T04:35:56;1.80;;;1.70;;
42864;SDS011;28511;42.680;23.252;2023-08-06T04:38:23;4.22;;;1.30;;
42864;SDS011;28511;42.680;23.252;2023-08-06T04:40:48;3.63;;;1.73;;
42864;SDS011;28511;42.680;23.252;2023-08-06T04:43:13;1.67;;;1.50;;
42864;SDS011;28511;42.680;23.252;2023-08-06T04:45:45;2.43;;;1.43;;
42864;SDS011;28511;42.680;23.252;2023-08-06T04:48:10;5.32;;;1.88;;
42864;SDS011;28511;42.680;23.252;2023-08-06T04:50:35;1.60;;;1.50;;
42864;SDS011;28511;42.680;23.252;2023-08-06T04:53:01;1.47;;;1.10;;
42864;SDS011;28511;42.680;23.252;2023-08-06T04:55:26;1.37;;;1.27;;
42864;SDS011;28511;42.680;23.252;2023-08-06T04:57:51;0.80;;;0.80;;
42864;SDS011;28511;42.680;23.252;2023-08-06T05:00:16;0.80;;;0.80;;
42864;SDS011;28511;42.680;23.252;2023-08-06T05:02:42;3.03;;;1.95;;
42864;SDS011;28511;42.680;23.252;2023-08-06T05:05:07;2.00;;;1.30;;
42864;SDS011;28511;42.680;23.252;2023-08-06T05:07:32;2.38;;;1.83;;
42864;SDS011;28511;42.680;23.252;2023-08-06T05:09:57;2.53;;;1.57;;
42864;SDS011;28511;42.680;23.252;2023-08-06T05:12:23;2.93;;;1.80;;
42864;SDS011;28511;42.680;23.252;2023-08-06T05:14:48;4.03;;;2.13;;
42864;SDS011;28511;42.680;23.252;2023-08-06T05:17:13;3.22;;;1.98;;
42864;SDS011;28511;42.680;23.252;2023-08-06T05:19:38;3.57;;;2.40;;
42864;SDS011;28511;42.680;23.252;2023-08-06T05:22:04;3.13;;;1.70;;
42864;SDS011;28511;42.680;23.252;2023-08-06T05:24:29;5.80;;;2.65;;
42864;SDS011;28511;42.680;23.252;2023-08-06T05:26:54;5.83;;;3.03;;
42864;SDS011;28511;42.680;23.252;2023-08-06T05:29:19;6.03;;;2.87;;
42864;SDS011;28511;42.680;23.252;2023-08-06T05:31:45;4.18;;;2.10;;
42864;SDS011;28511;42.680;23.252;2023-08-06T05:34:10;3.17;;;2.47;;
42864;SDS011;28511;42.680;23.252;2023-08-06T05:36:35;7.17;;;2.20;;
42864;SDS011;28511;42.680;23.252;2023-08-06T05:39:00;6.53;;;3.20;;
42864;SDS011;28511;42.680;23.252;2023-08-06T05:41:25;4.20;;;2.37;;
42864;SDS011;28511;42.680;23.252;2023-08-06T05:43:51;3.30;;;1.80;;
42864;SDS011;28511;42.680;23.252;2023-08-06T05:46:16;1.80;;;1.20;;
42864;SDS011;28511;42.680;23.252;2023-08-06T05:48:41;2.47;;;1.30;;
42864;SDS011;28511;42.680;23.252;2023-08-06T05:51:06;1.95;;;1.30;;
42864;SDS011;28511;42.680;23.252;2023-08-06T05:53:32;1.92;;;1.13;;
42864;SDS011;28511;42.680;23.252;2023-08-06T05:55:58;4.10;;;1.30;;
42864;SDS011;28511;42.680;23.252;2023-08-06T05:58:23;2.73;;;1.33;;
42864;SDS011;28511;42.680;23.252;2023-08-06T06:00:51;2.00;;;1.10;;
42864;SDS011;28511;42.680;23.252;2023-08-06T06:03:16;1.42;;;1.10;;
42864;SDS011;28511;42.680;23.252;2023-08-06T06:05:41;2.17;;;1.40;;
42864;SDS011;28511;42.680;23.252;2023-08-06T06:08:07;1.63;;;1.07;;
42864;SDS011;28511;42.680;23.252;2023-08-06T06:10:32;1.43;;;1.10;;
42864;SDS011;28511;42.680;23.252;2023-08-06T06:12:57;1.70;;;1.43;;
42864;SDS011;28511;42.680;23.252;2023-08-06T06:15:22;2.17;;;1.40;;
42864;SDS011;28511;42.680;23.252;2023-08-06T06:17:48;3.77;;;1.13;;
42864;SDS011;28511;42.680;23.252;2023-08-06T06:20:13;2.53;;;1.23;;
42864;SDS011;28511;42.680;23.252;2023-08-06T06:22:38;2.30;;;1.17;;
42864;SDS011;28511;42.680;23.252;2023-08-06T06:25:03;2.07;;;1.30;;
42864;SDS011;28511;42.680;23.252;2023-08-06T06:27:29;1.20;;;0.98;;
42864;SDS011;28511;42.680;23.252;2023-08-06T06:29:54;0.87;;;0.87;;
42864;SDS011;28511;42.680;23.252;2023-08-06T06:32:20;3.50;;;1.23;;
42864;SDS011;28511;42.680;23.252;2023-08-06T06:34:45;1.25;;;0.88;;
42864;SDS011;28511;42.680;23.252;2023-08-06T06:37:10;2.03;;;1.07;;
42864;SDS011;28511;42.680;23.252;2023-08-06T06:39:36;4.23;;;2.00;;
42864;SDS011;28511;42.680;23.252;2023-08-06T06:42:01;2.10;;;1.00;;
42864;SDS011;28511;42.680;23.252;2023-08-06T06:44:26;2.53;;;1.30;;
42864;SDS011;28511;42.680;23.252;2023-08-06T06:46:51;1.73;;;1.20;;
42864;SDS011;28511;42.680;23.252;2023-08-06T06:49:16;2.93;;;1.50;;
42864;SDS011;28511;42.680;23.252;2023-08-06T06:51:42;2.73;;;1.83;;
42864;SDS011;28511;42.680;23.252;2023-08-06T06:54:07;2.00;;;1.03;;
42864;SDS011;28511;42.680;23.252;2023-08-06T06:56:32;1.47;;;1.10;;
42864;SDS011;28511;42.680;23.252;2023-08-06T06:58:57;1.33;;;1.10;;
42864;SDS011;28511;42.680;23.252;2023-08-06T07:01:23;1.47;;;1.30;;
42864;SDS011;28511;42.680;23.252;2023-08-06T07:03:48;0.73;;;0.70;;
42864;SDS011;28511;42.680;23.252;2023-08-06T07:06:13;1.13;;;1.00;;
42864;SDS011;28511;42.680;23.252;2023-08-06T07:08:40;2.38;;;1.02;;
42864;SDS011;28511;42.680;23.252;2023-08-06T07:11:06;1.43;;;1.00;;
42864;SDS011;28511;42.680;23.252;2023-08-06T07:13:31;1.58;;;1.20;;
42864;SDS011;28511;42.680;23.252;2023-08-06T07:15:57;1.35;;;1.08;;
42864;SDS011;28511;42.680;23.252;2023-08-06T07:18:23;2.80;;;1.13;;
42864;SDS011;28511;42.680;23.252;2023-08-06T07:20:49;0.90;;;0.90;;
42864;SDS011;28511;42.680;23.252;2023-08-06T07:23:22;1.40;;;0.98;;
42864;SDS011;28511;42.680;23.252;2023-08-06T07:25:51;2.03;;;1.15;;
42864;SDS011;28511;42.680;23.252;2023-08-06T07:28:25;1.42;;;1.17;;
42864;SDS011;28511;42.680;23.252;2023-08-06T07:30:50;1.38;;;1.00;;
42864;SDS011;28511;42.680;23.252;2023-08-06T07:33:16;3.55;;;1.20;;
42864;SDS011;28511;42.680;23.252;2023-08-06T07:35:41;2.35;;;1.08;;
42864;SDS011;28511;42.680;23.252;2023-08-06T07:38:08;2.58;;;1.70;;
42864;SDS011;28511;42.680;23.252;2023-08-06T07:40:35;2.00;;;1.10;;
42864;SDS011;28511;42.680;23.252;2023-08-06T07:43:00;1.15;;;1.05;;
42864;SDS011;28511;42.680;23.252;2023-08-06T07:45:28;2.90;;;1.60;;
42864;SDS011;28511;42.680;23.252;2023-08-06T07:47:57;2.50;;;1.25;;
42864;SDS011;28511;42.680;23.252;2023-08-06T07:50:22;2.05;;;1.25;;
42864;SDS011;28511;42.680;23.252;2023-08-06T07:52:48;1.60;;;1.10;;
42864;SDS011;28511;42.680;23.252;2023-08-06T07:55:16;1.55;;;1.45;;
42864;SDS011;28511;42.680;23.252;2023-08-06T07:57:41;2.53;;;1.15;;
42864;SDS011;28511;42.680;23.252;2023-08-06T08:00:07;2.05;;;1.40;;
42864;SDS011;28511;42.680;23.252;2023-08-06T08:02:32;1.30;;;1.00;;
42864;SDS011;28511;42.680;23.252;2023-08-06T08:04:58;1.60;;;1.10;;
42864;SDS011;28511;42.680;23.252;2023-08-06T08:07:23;1.73;;;1.63;;
42864;SDS011;28511;42.680;23.252;2023-08-06T08:09:56;1.70;;;1.10;;
42864;SDS011;28511;42.680;23.252;2023-08-06T08:12:21;2.33;;;1.30;;
42864;SDS011;28511;42.680;23.252;2023-08-06T08:14:50;2.15;;;1.38;;
42864;SDS011;28511;42.680;23.252;2023-08-06T08:17:15;2.30;;;1.17;;
42864;SDS011;28511;42.680;23.252;2023-08-06T08:19:40;1.30;;;1.20;;
42864;SDS011;28511;42.680;23.252;2023-08-06T08:22:06;2.13;;;1.10;;
42864;SDS011;28511;42.680;23.252;2023-08-06T08:24:31;1.75;;;0.98;;
42864;SDS011;28511;42.680;23.252;2023-08-06T08:27:14;1.45;;;0.95;;
42864;SDS011;28511;42.680;23.252;2023-08-06T08:29:39;2.72;;;1.27;;
42864;SDS011;28511;42.680;23.252;2023-08-06T08:32:04;1.80;;;1.23;;
42864;SDS011;28511;42.680;23.252;2023-08-06T08:34:32;2.25;;;1.73;;
42864;SDS011;28511;42.680;23.252;2023-08-06T08:36:58;2.00;;;1.15;;
42864;SDS011;28511;42.680;23.252;2023-08-06T08:39:23;2.00;;;1.50;;
42864;SDS011;28511;42.680;23.252;2023-08-06T08:41:48;1.23;;;0.87;;
42864;SDS011;28511;42.680;23.252;2023-08-06T08:44:16;1.45;;;0.90;;
42864;SDS011;28511;42.680;23.252;2023-08-06T08:46:43;1.88;;;1.15;;
42864;SDS011;28511;42.680;23.252;2023-08-06T08:49:09;2.03;;;1.35;;
42864;SDS011;28511;42.680;23.252;2023-08-06T08:51:34;1.53;;;1.30;;
42864;SDS011;28511;42.680;23.252;2023-08-06T08:54:03;2.88;;;1.48;;
42864;SDS011;28511;42.680;23.252;2023-08-06T08:56:28;2.05;;;1.10;;
42864;SDS011;28511;42.680;23.252;2023-08-06T08:58:53;1.35;;;1.25;;
42864;SDS011;28511;42.680;23.252;2023-08-06T09:01:20;1.95;;;1.27;;
42864;SDS011;28511;42.680;23.252;2023-08-06T09:03:46;2.25;;;1.48;;
42864;SDS011;28511;42.680;23.252;2023-08-06T09:06:12;2.17;;;1.30;;
42864;SDS011;28511;42.680;23.252;2023-08-06T09:08:39;2.08;;;1.38;;
42864;SDS011;28511;42.680;23.252;2023-08-06T09:11:07;1.70;;;1.10;;
42864;SDS011;28511;42.680;23.252;2023-08-06T09:13:35;1.35;;;1.25;;
42864;SDS011;28511;42.680;23.252;2023-08-06T09:16:00;1.20;;;0.95;;
42864;SDS011;28511;42.680;23.252;2023-08-06T09:18:26;2.27;;;1.40;;
42864;SDS011;28511;42.680;23.252;2023-08-06T09:20:54;1.08;;;0.98;;
42864;SDS011;28511;42.680;23.252;2023-08-06T09:23:19;1.17;;;1.08;;
42864;SDS011;28511;42.680;23.252;2023-08-06T09:25:45;1.20;;;1.13;;
42864;SDS011;28511;42.680;23.252;2023-08-06T09:28:11;1.33;;;1.13;;
42864;SDS011;28511;42.680;23.252;2023-08-06T09:30:37;1.15;;;1.00;;
42864;SDS011;28511;42.680;23.252;2023-08-06T09:33:03;2.38;;;0.85;;
42864;SDS011;28511;42.680;23.252;2023-08-06T09:35:29;1.33;;;1.17;;
42864;SDS011;28511;42.680;23.252;2023-08-06T09:37:55;1.02;;;0.80;;
42864;SDS011;28511;42.680;23.252;2023-08-06T09:40:30;1.58;;;1.00;;
42864;SDS011;28511;42.680;23.252;2023-08-06T09:42:56;1.40;;;0.90;;
42864;SDS011;28511;42.680;23.252;2023-08-06T09:45:21;2.40;;;1.17;;
42864;SDS011;28511;42.680;23.252;2023-08-06T09:47:47;1.08;;;0.98;;
42864;SDS011;28511;42.680;23.252;2023-08-06T09:50:19;1.02;;;0.80;;
42864;SDS011;28511;42.680;23.252;2023-08-06T09:52:44;0.70;;;0.70;;
42864;SDS011;28511;42.680;23.252;2023-08-06T09:55:13;0.80;;;0.73;;
42864;SDS011;28511;42.680;23.252;2023-08-06T09:57:42;0.80;;;0.67;;
42864;SDS011;28511;42.680;23.252;2023-08-06T10:00:08;0.82;;;0.80;;
42864;SDS011;28511;42.680;23.252;2023-08-06T10:02:35;1.13;;;0.80;;
42864;SDS011;28511;42.680;23.252;2023-08-06T10:05:00;1.35;;;0.90;;
42864;SDS011;28511;42.680;23.252;2023-08-06T10:07:26;1.17;;;0.93;;
42864;SDS011;28511;42.680;23.252;2023-08-06T10:09:52;1.67;;;1.05;;
42864;SDS011;28511;42.680;23.252;2023-08-06T10:12:17;1.40;;;1.05;;
42864;SDS011;28511;42.680;23.252;2023-08-06T10:14:44;1.45;;;1.00;;
42864;SDS011;28511;42.680;23.252;2023-08-06T10:17:10;2.17;;;1.40;;
42864;SDS011;28511;42.680;23.252;2023-08-06T10:19:36;1.42;;;0.95;;
42864;SDS011;28511;42.680;23.252;2023-08-06T10:22:11;1.55;;;0.82;;
42864;SDS011;28511;42.680;23.252;2023-08-06T10:24:47;1.38;;;0.70;;
42864;SDS011;28511;42.680;23.252;2023-08-06T10:27:13;1.00;;;0.90;;
42864;SDS011;28511;42.680;23.252;2023-08-06T10:29:38;1.23;;;1.13;;
42864;SDS011;28511;42.680;23.252;2023-08-06T10:32:03;1.83;;;1.17;;
42864;SDS011;28511;42.680;23.252;2023-08-06T10:34:53;0.90;;;0.90;;
42864;SDS011;28511;42.680;23.252;2023-08-06T10:37:18;1.08;;;0.80;;
42864;SDS011;28511;42.680;23.252;2023-08-06T10:39:50;3.58;;;1.55;;
42864;SDS011;28511;42.680;23.252;2023-08-06T10:42:34;2.65;;;0.90;;
42864;SDS011;28511;42.680;23.252;2023-08-06T10:45:15;1.67;;;1.08;;
42864;SDS011;28511;42.680;23.252;2023-08-06T10:47:41;1.58;;;1.08;;
42864;SDS011;28511;42.680;23.252;2023-08-06T10:50:07;1.38;;;1.00;;
42864;SDS011;28511;42.680;23.252;2023-08-06T10:52:33;2.00;;;1.30;;
42864;SDS011;28511;42.680;23.252;2023-08-06T10:54:58;2.33;;;1.73;;
42864;SDS011;28511;42.680;23.252;2023-08-06T10:57:24;1.70;;;0.97;;
42864;SDS011;28511;42.680;23.252;2023-08-06T10:59:49;2.42;;;1.15;;
42864;SDS011;28511;42.680;23.252;2023-08-06T11:02:14;2.43;;;1.07;;
42864;SDS011;28511;42.680;23.252;2023-08-06T11:04:40;1.08;;;0.80;;
42864;SDS011;28511;42.680;23.252;2023-08-06T11:07:06;2.13;;;1.40;;
42864;SDS011;28511;42.680;23.252;2023-08-06T11:09:31;1.67;;;1.40;;
42864;SDS011;28511;42.680;23.252;2023-08-06T11:11:57;1.07;;;0.97;;
42864;SDS011;28511;42.680;23.252;2023-08-06T11:14:22;2.53;;;1.48;;
42864;SDS011;28511;42.680;23.252;2023-08-06T11:16:47;1.98;;;1.08;;
42864;SDS011;28511;42.680;23.252;2023-08-06T11:19:13;2.50;;;1.00;;
42864;SDS011;28511;42.680;23.252;2023-08-06T11:21:40;1.23;;;1.13;;
42864;SDS011;28511;42.680;23.252;2023-08-06T11:24:05;1.95;;;1.70;;
42864;SDS011;28511;42.680;23.252;2023-08-06T11:26:31;1.75;;;1.40;;
42864;SDS011;28511;42.680;23.252;2023-08-06T11:28:56;2.05;;;1.45;;
42864;SDS011;28511;42.680;23.252;2023-08-06T11:31:21;1.77;;;1.50;;
42864;SDS011;28511;42.680;23.252;2023-08-06T11:33:47;2.05;;;1.38;;
42864;SDS011;28511;42.680;23.252;2023-08-06T11:36:12;1.67;;;1.02;;
42864;SDS011;28511;42.680;23.252;2023-08-06T11:38:37;1.83;;;1.25;;
42864;SDS011;28511;42.680;23.252;2023-08-06T11:41:03;3.30;;;1.53;;
42864;SDS011;28511;42.680;23.252;2023-08-06T11:43:30;1.63;;;1.25;;
42864;SDS011;28511;42.680;23.252;2023-08-06T11:45:55;2.50;;;1.80;;
42864;SDS011;28511;42.680;23.252;2023-08-06T11:48:21;2.08;;;1.27;;
42864;SDS011;28511;42.680;23.252;2023-08-06T11:50:46;2.92;;;1.45;;
42864;SDS011;28511;42.680;23.252;2023-08-06T11:53:12;3.63;;;1.27;;
42864;SDS011;28511;42.680;23.252;2023-08-06T11:55:38;2.00;;;1.80;;
42864;SDS011;28511;42.680;23.252;2023-08-06T11:58:03;1.33;;;1.20;;
42864;SDS011;28511;42.680;23.252;2023-08-06T12:00:29;3.40;;;2.10;;
42864;SDS011;28511;42.680;23.252;2023-08-06T12:02:55;2.27;;;1.43;;
42864;SDS011;28511;42.680;23.252;2023-08-06T12:05:21;2.72;;;1.65;;
42864;SDS011;28511;42.680;23.252;2023-08-06T12:07:49;2.40;;;1.52;;
42864;SDS011;28511;42.680;23.252;2023-08-06T12:10:15;3.38;;;2.00;;
42864;SDS011;28511;42.680;23.252;2023-08-06T12:12:40;3.08;;;2.00;;
42864;SDS011;28511;42.680;23.252;2023-08-06T12:15:06;1.95;;;1.30;;
42864;SDS011;28511;42.680;23.252;2023-08-06T12:17:32;2.97;;;2.00;;
42864;SDS011;28511;42.680;23.252;2023-08-06T12:19:57;2.03;;;1.13;;
42864;SDS011;28511;42.680;23.252;2023-08-06T12:22:22;3.08;;;1.70;;
42864;SDS011;28511;42.680;23.252;2023-08-06T12:24:48;2.75;;;1.77;;
42864;SDS011;28511;42.680;23.252;2023-08-06T12:27:13;2.08;;;1.58;;
42864;SDS011;28511;42.680;23.252;2023-08-06T12:29:43;7.40;;;2.25;;
42864;SDS011;28511;42.680;23.252;2023-08-06T12:32:09;2.65;;;1.92;;
42864;SDS011;28511;42.680;23.252;2023-08-06T12:34:34;3.80;;;2.50;;
42864;SDS011;28511;42.680;23.252;2023-08-06T12:36:59;1.87;;;1.60;;
42864;SDS011;28511;42.680;23.252;2023-08-06T12:39:24;2.63;;;1.80;;
42864;SDS011;28511;42.680;23.252;2023-08-06T12:41:50;2.37;;;1.60;;
42864;SDS011;28511;42.680;23.252;2023-08-06T12:44:15;3.30;;;2.28;;
42864;SDS011;28511;42.680;23.252;2023-08-06T12:46:40;2.93;;;1.63;;
42864;SDS011;28511;42.680;23.252;2023-08-06T12:49:05;3.80;;;2.20;;
42864;SDS011;28511;42.680;23.252;2023-08-06T12:51:31;3.57;;;2.30;;
42864;SDS011;28511;42.680;23.252;2023-08-06T12:53:58;3.17;;;1.98;;
42864;SDS011;28511;42.680;23.252;2023-08-06T12:56:24;3.63;;;1.98;;
42864;SDS011;28511;42.680;23.252;2023-08-06T12:58:49;2.73;;;1.70;;
42864;SDS011;28511;42.680;23.252;2023-08-06T13:01:14;4.30;;;2.45;;
42864;SDS011;28511;42.680;23.252;2023-08-06T13:03:40;3.80;;;2.07;;
42864;SDS011;28511;42.680;23.252;2023-08-06T13:06:05;4.13;;;2.50;;
42864;SDS011;28511;42.680;23.252;2023-08-06T13:08:30;4.45;;;2.40;;
42864;SDS011;28511;42.680;23.252;2023-08-06T13:10:56;2.53;;;2.00;;
42864;SDS011;28511;42.680;23.252;2023-08-06T13:13:21;1.95;;;1.55;;
42864;SDS011;28511;42.680;23.252;2023-08-06T13:15:46;3.30;;;2.57;;
42864;SDS011;28511;42.680;23.252;2023-08-06T13:18:11;3.00;;;2.07;;
42864;SDS011;28511;42.680;23.252;2023-08-06T13:20:38;3.67;;;2.20;;
42864;SDS011;28511;42.680;23.252;2023-08-06T13:23:04;2.20;;;1.90;;
42864;SDS011;28511;42.680;23.252;2023-08-06T13:25:29;3.23;;;2.20;;
42864;SDS011;28511;42.680;23.252;2023-08-06T13:27:55;2.92;;;1.90;;
42864;SDS011;28511;42.680;23.252;2023-08-06T13:30:20;5.67;;;2.93;;
42864;SDS011;28511;42.680;23.252;2023-08-06T13:32:46;2.67;;;2.40;;
42864;SDS011;28511;42.680;23.252;2023-08-06T13:35:11;2.45;;;1.70;;
42864;SDS011;28511;42.680;23.252;2023-08-06T13:37:37;3.28;;;1.50;;
42864;SDS011;28511;42.680;23.252;2023-08-06T13:40:03;3.10;;;1.90;;
42864;SDS011;28511;42.680;23.252;2023-08-06T13:42:28;2.08;;;1.55;;
42864;SDS011;28511;42.680;23.252;2023-08-06T13:44:54;3.65;;;2.00;;
42864;SDS011;28511;42.680;23.252;2023-08-06T13:47:24;4.63;;;2.40;;
42864;SDS011;28511;42.680;23.252;2023-08-06T13:49:49;3.58;;;2.20;;
42864;SDS011;28511;42.680;23.252;2023-08-06T13:52:15;2.23;;;2.03;;
42864;SDS011;28511;42.680;23.252;2023-08-06T13:54:40;3.37;;;2.07;;
42864;SDS011;28511;42.680;23.252;2023-08-06T13:57:05;2.67;;;2.03;;
42864;SDS011;28511;42.680;23.252;2023-08-06T13:59:30;2.63;;;1.50;;
42864;SDS011;28511;42.680;23.252;2023-08-06T14:01:55;2.67;;;1.67;;
42864;SDS011;28511;42.680;23.252;2023-08-06T14:04:24;4.67;;;2.47;;
42864;SDS011;28511;42.680;23.252;2023-08-06T14:06:50;3.75;;;1.98;;
42864;SDS011;28511;42.680;23.252;2023-08-06T14:09:15;2.03;;;1.70;;
42864;SDS011;28511;42.680;23.252;2023-08-06T14:11:43;3.00;;;1.50;;
42864;SDS011;28511;42.680;23.252;2023-08-06T14:14:08;2.10;;;1.90;;
42864;SDS011;28511;42.680;23.252;2023-08-06T14:16:34;2.13;;;1.70;;
42864;SDS011;28511;42.680;23.252;2023-08-06T14:18:59;3.23;;;1.63;;
42864;SDS011;28511;42.680;23.252;2023-08-06T14:21:24;3.73;;;2.10;;
42864;SDS011;28511;42.680;23.252;2023-08-06T14:23:49;2.03;;;1.80;;
42864;SDS011;28511;42.680;23.252;2023-08-06T14:26:15;1.40;;;1.30;;
42864;SDS011;28511;42.680;23.252;2023-08-06T14:28:40;2.63;;;1.70;;
42864;SDS011;28511;42.680;23.252;2023-08-06T14:31:05;4.70;;;2.08;;